sensor_id;sensor_type;location;lat;lon;timestamp;temperature;humidity
2453;DHT22;63678;47.994;7.854;2023-01-28T00:01:44;2.00;99.90
2453;DHT22;63678;47.994;7.854;2023-01-28T00:04:20;2.00;99.90
2453;DHT22;63678;47.994;7.854;2023-01-28T00:06:52;2.00;99.90
2453;DHT22;63678;47.994;7.854;2023-01-28T00:09:24;2.00;99.90
2453;DHT22;63678;47.994;7.854;2023-01-28T00:14:30;2.00;99.90
2453;DHT22;63678;47.994;7.854;2023-01-28T00:17:04;2.00;99.90
2453;DHT22;63678;47.994;7.854;2023-01-28T00:19:37;2.00;99.90
2453;DHT22;63678;47.994;7.854;2023-01-28T00:22:09;2.00;99.90
2453;DHT22;63678;47.994;7.854;2023-01-28T00:24:41;1.90;99.90
2453;DHT22;63678;47.994;7.854;2023-01-28T00:29:47;1.90;99.90
2453;DHT22;63678;47.994;7.854;2023-01-28T00:32:19;2.00;99.90
2453;DHT22;63678;47.994;7.854;2023-01-28T00:34:52;2.00;99.90
2453;DHT22;63678;47.994;7.854;2023-01-28T00:37:24;1.90;99.90
2453;DHT22;63678;47.994;7.854;2023-01-28T00:39:56;2.00;99.90
2453;DHT22;63678;47.994;7.854;2023-01-28T00:42:29;1.90;99.90
2453;DHT22;63678;47.994;7.854;2023-01-28T00:45:01;2.00;99.90
2453;DHT22;63678;47.994;7.854;2023-01-28T00:47:33;2.00;99.90
2453;DHT22;63678;47.994;7.854;2023-01-28T00:50:06;2.00;99.90
2453;DHT22;63678;47.994;7.854;2023-01-28T00:52:41;2.80;99.90
2453;DHT22;63678;47.994;7.854;2023-01-28T00:55:14;2.00;99.90
2453;DHT22;63678;47.994;7.854;2023-01-28T00:57:46;2.00;99.90
2453;DHT22;63678;47.994;7.854;2023-01-28T01:00:19;2.00;99.90
2453;DHT22;63678;47.994;7.854;2023-01-28T01:02:59;2.10;99.90
2453;DHT22;63678;47.994;7.854;2023-01-28T01:05:31;2.00;99.90
2453;DHT22;63678;47.994;7.854;2023-01-28T01:08:04;2.10;99.90
2453;DHT22;63678;47.994;7.854;2023-01-28T01:10:38;2.00;99.90
2453;DHT22;63678;47.994;7.854;2023-01-28T01:13:10;1.90;99.90
2453;DHT22;63678;47.994;7.854;2023-01-28T01:15:43;2.00;99.90
2453;DHT22;63678;47.994;7.854;2023-01-28T01:18:15;2.00;99.90
2453;DHT22;63678;47.994;7.854;2023-01-28T01:20:48;2.00;99.90
2453;DHT22;63678;47.994;7.854;2023-01-28T01:23:25;2.00;99.90
2453;DHT22;63678;47.994;7.854;2023-01-28T01:26:00;2.00;99.90
2453;DHT22;63678;47.994;7.854;2023-01-28T01:28:33;2.10;99.90
2453;DHT22;63678;47.994;7.854;2023-01-28T01:31:09;2.10;99.90
2453;DHT22;63678;47.994;7.854;2023-01-28T01:33:46;2.10;99.90
2453;DHT22;63678;47.994;7.854;2023-01-28T01:36:19;2.10;99.90
2453;DHT22;63678;47.994;7.854;2023-01-28T01:38:53;2.10;99.90
2453;DHT22;63678;47.994;7.854;2023-01-28T01:41:29;2.20;99.90
2453;DHT22;63678;47.994;7.854;2023-01-28T01:44:04;2.20;99.90
2453;DHT22;63678;47.994;7.854;2023-01-28T01:46:42;2.10;99.90
2453;DHT22;63678;47.994;7.854;2023-01-28T01:49:22;2.20;99.90
2453;DHT22;63678;47.994;7.854;2023-01-28T01:52:02;2.20;99.90
2453;DHT22;63678;47.994;7.854;2023-01-28T01:54:40;2.10;99.90
2453;DHT22;63678;47.994;7.854;2023-01-28T01:57:20;2.20;99.90
2453;DHT22;63678;47.994;7.854;2023-01-28T01:59:56;2.20;99.90
2453;DHT22;63678;47.994;7.854;2023-01-28T02:02:47;2.20;99.90
2453;DHT22;63678;47.994;7.854;2023-01-28T02:05:21;2.20;99.90
2453;DHT22;63678;47.994;7.854;2023-01-28T02:07:56;2.20;99.90
2453;DHT22;63678;47.994;7.854;2023-01-28T02:10:57;2.10;99.90
2453;DHT22;63678;47.994;7.854;2023-01-28T02:13:39;2.20;99.90
2453;DHT22;63678;47.994;7.854;2023-01-28T02:16:13;2.20;99.90
2453;DHT22;63678;47.994;7.854;2023-01-28T02:18:46;2.10;99.90
2453;DHT22;63678;47.994;7.854;2023-01-28T02:34:00;2.20;99.90
2453;DHT22;63678;47.994;7.854;2023-01-28T02:37:14;2.30;99.90
2453;DHT22;63678;47.994;7.854;2023-01-28T02:40:21;2.20;99.90
2453;DHT22;63678;47.994;7.854;2023-01-28T02:42:56;2.30;99.90
2453;DHT22;63678;47.994;7.854;2023-01-28T02:45:32;2.30;99.90
2453;DHT22;63678;47.994;7.854;2023-01-28T02:48:38;2.30;99.90
2453;DHT22;63678;47.994;7.854;2023-01-28T02:51:23;2.30;99.90
2453;DHT22;63678;47.994;7.854;2023-01-28T02:54:17;2.20;99.90
2453;DHT22;63678;47.994;7.854;2023-01-28T03:00:20;2.20;99.90
2453;DHT22;63678;47.994;7.854;2023-01-28T03:05:41;2.30;99.90
2453;DHT22;63678;47.994;7.854;2023-01-28T03:11:46;2.30;99.90
2453;DHT22;63678;47.994;7.854;2023-01-28T03:14:39;2.30;99.90
2453;DHT22;63678;47.994;7.854;2023-01-28T03:30:25;2.30;99.90
2453;DHT22;63678;47.994;7.854;2023-01-28T03:33:35;2.20;99.90
2453;DHT22;63678;47.994;7.854;2023-01-28T03:36:27;2.30;99.90
2453;DHT22;63678;47.994;7.854;2023-01-28T03:39:42;2.30;99.90
2453;DHT22;63678;47.994;7.854;2023-01-28T03:42:15;2.30;99.90
2453;DHT22;63678;47.994;7.854;2023-01-28T03:45:01;2.30;99.90
2453;DHT22;63678;47.994;7.854;2023-01-28T03:47:36;2.30;99.90
2453;DHT22;63678;47.994;7.854;2023-01-28T03:50:15;2.20;99.90
2453;DHT22;63678;47.994;7.854;2023-01-28T03:53:01;2.20;99.90
2453;DHT22;63678;47.994;7.854;2023-01-28T03:55:52;2.20;99.90
2453;DHT22;63678;47.994;7.854;2023-01-28T03:58:25;2.30;99.90
2453;DHT22;63678;47.994;7.854;2023-01-28T04:01:19;2.30;99.90
2453;DHT22;63678;47.994;7.854;2023-01-28T04:03:53;2.30;99.90
2453;DHT22;63678;47.994;7.854;2023-01-28T04:09:21;2.30;99.90
2453;DHT22;63678;47.994;7.854;2023-01-28T04:12:17;2.40;99.90
2453;DHT22;63678;47.994;7.854;2023-01-28T04:14:54;2.30;99.90
2453;DHT22;63678;47.994;7.854;2023-01-28T04:17:30;2.40;99.90
2453;DHT22;63678;47.994;7.854;2023-01-28T04:20:03;2.40;99.90
2453;DHT22;63678;47.994;7.854;2023-01-28T04:22:37;2.30;99.90
2453;DHT22;63678;47.994;7.854;2023-01-28T04:25:13;2.30;99.90
2453;DHT22;63678;47.994;7.854;2023-01-28T04:27:47;2.40;99.90
2453;DHT22;63678;47.994;7.854;2023-01-28T04:30:24;2.40;99.90
2453;DHT22;63678;47.994;7.854;2023-01-28T04:33:19;2.30;99.90
2453;DHT22;63678;47.994;7.854;2023-01-28T04:36:03;2.30;99.90
2453;DHT22;63678;47.994;7.854;2023-01-28T04:38:45;2.30;99.90
2453;DHT22;63678;47.994;7.854;2023-01-28T04:41:50;2.30;99.90
2453;DHT22;63678;47.994;7.854;2023-01-28T04:44:36;2.30;99.90
2453;DHT22;63678;47.994;7.854;2023-01-28T04:47:29;2.30;99.90
2453;DHT22;63678;47.994;7.854;2023-01-28T04:50:22;2.20;99.90
2453;DHT22;63678;47.994;7.854;2023-01-28T04:53:10;2.20;99.90
2453;DHT22;63678;47.994;7.854;2023-01-28T04:56:00;2.20;99.90
2453;DHT22;63678;47.994;7.854;2023-01-28T04:58:35;2.20;99.90
2453;DHT22;63678;47.994;7.854;2023-01-28T05:01:13;2.20;99.90
2453;DHT22;63678;47.994;7.854;2023-01-28T05:03:45;2.20;99.90
2453;DHT22;63678;47.994;7.854;2023-01-28T05:06:25;2.10;99.90
2453;DHT22;63678;47.994;7.854;2023-01-28T05:09:00;2.40;99.90
2453;DHT22;63678;47.994;7.854;2023-01-28T05:11:34;3.30;99.90
2453;DHT22;63678;47.994;7.854;2023-01-28T05:14:11;2.90;99.90
2453;DHT22;63678;47.994;7.854;2023-01-28T05:17:03;2.60;99.90
2453;DHT22;63678;47.994;7.854;2023-01-28T05:19:36;2.60;99.90
2453;DHT22;63678;47.994;7.854;2023-01-28T05:25:08;2.30;99.90
2453;DHT22;63678;47.994;7.854;2023-01-28T05:27:41;2.30;99.90
2453;DHT22;63678;47.994;7.854;2023-01-28T05:30:13;2.30;99.90
2453;DHT22;63678;47.994;7.854;2023-01-28T05:32:46;2.30;99.90
2453;DHT22;63678;47.994;7.854;2023-01-28T05:35:23;2.30;99.90
2453;DHT22;63678;47.994;7.854;2023-01-28T05:37:55;2.20;99.90
2453;DHT22;63678;47.994;7.854;2023-01-28T05:40:28;2.30;99.90
2453;DHT22;63678;47.994;7.854;2023-01-28T05:43:01;2.30;99.90
2453;DHT22;63678;47.994;7.854;2023-01-28T05:45:41;2.30;99.90
2453;DHT22;63678;47.994;7.854;2023-01-28T05:48:40;2.30;99.90
2453;DHT22;63678;47.994;7.854;2023-01-28T05:51:35;2.30;99.90
2453;DHT22;63678;47.994;7.854;2023-01-28T05:54:08;2.30;99.90
2453;DHT22;63678;47.994;7.854;2023-01-28T05:56:40;2.30;99.90
2453;DHT22;63678;47.994;7.854;2023-01-28T05:59:13;2.20;99.90
2453;DHT22;63678;47.994;7.854;2023-01-28T06:01:47;2.30;99.90
2453;DHT22;63678;47.994;7.854;2023-01-28T06:04:20;2.30;99.90
2453;DHT22;63678;47.994;7.854;2023-01-28T06:06:53;2.30;99.90
2453;DHT22;63678;47.994;7.854;2023-01-28T06:09:26;2.30;99.90
2453;DHT22;63678;47.994;7.854;2023-01-28T06:11:58;2.40;99.90
2453;DHT22;63678;47.994;7.854;2023-01-28T06:14:31;2.30;99.90
2453;DHT22;63678;47.994;7.854;2023-01-28T06:17:14;2.40;99.90
2453;DHT22;63678;47.994;7.854;2023-01-28T06:20:10;2.40;99.90
2453;DHT22;63678;47.994;7.854;2023-01-28T06:22:44;2.40;99.90
2453;DHT22;63678;47.994;7.854;2023-01-28T06:25:17;2.30;99.90
2453;DHT22;63678;47.994;7.854;2023-01-28T06:27:51;0.80;99.90
2453;DHT22;63678;47.994;7.854;2023-01-28T06:30:23;2.30;99.90
2453;DHT22;63678;47.994;7.854;2023-01-28T06:32:55;2.30;99.90
2453;DHT22;63678;47.994;7.854;2023-01-28T06:35:28;2.30;99.90
2453;DHT22;63678;47.994;7.854;2023-01-28T06:38:00;2.30;99.90
2453;DHT22;63678;47.994;7.854;2023-01-28T06:40:33;4.00;99.90
2453;DHT22;63678;47.994;7.854;2023-01-28T06:43:05;2.30;99.90
2453;DHT22;63678;47.994;7.854;2023-01-28T06:45:37;2.30;99.90
2453;DHT22;63678;47.994;7.854;2023-01-28T06:48:10;2.30;99.90
2453;DHT22;63678;47.994;7.854;2023-01-28T06:50:42;2.30;99.90
2453;DHT22;63678;47.994;7.854;2023-01-28T06:53:18;2.30;99.90
2453;DHT22;63678;47.994;7.854;2023-01-28T06:55:50;2.30;99.90
2453;DHT22;63678;47.994;7.854;2023-01-28T06:58:23;2.30;99.90
2453;DHT22;63678;47.994;7.854;2023-01-28T07:00:55;2.30;99.90
2453;DHT22;63678;47.994;7.854;2023-01-28T07:03:28;2.30;99.90
2453;DHT22;63678;47.994;7.854;2023-01-28T07:06:02;2.30;99.90
2453;DHT22;63678;47.994;7.854;2023-01-28T07:13:41;2.40;99.90
2453;DHT22;63678;47.994;7.854;2023-01-28T07:16:14;2.40;99.90
2453;DHT22;63678;47.994;7.854;2023-01-28T07:18:48;2.40;99.90
2453;DHT22;63678;47.994;7.854;2023-01-28T07:21:20;2.40;99.90
2453;DHT22;63678;47.994;7.854;2023-01-28T07:23:52;2.40;99.90
2453;DHT22;63678;47.994;7.854;2023-01-28T07:26:25;2.40;99.90
2453;DHT22;63678;47.994;7.854;2023-01-28T07:31:31;2.40;99.90
2453;DHT22;63678;47.994;7.854;2023-01-28T07:34:04;2.50;99.90
2453;DHT22;63678;47.994;7.854;2023-01-28T07:36:36;2.50;99.90
2453;DHT22;63678;47.994;7.854;2023-01-28T07:39:08;2.50;99.90
2453;DHT22;63678;47.994;7.854;2023-01-28T07:41:41;2.40;99.90
2453;DHT22;63678;47.994;7.854;2023-01-28T07:44:29;2.40;99.90
2453;DHT22;63678;47.994;7.854;2023-01-28T07:47:03;2.40;99.90
2453;DHT22;63678;47.994;7.854;2023-01-28T07:49:36;2.40;99.90
2453;DHT22;63678;47.994;7.854;2023-01-28T07:54:43;2.40;99.90
2453;DHT22;63678;47.994;7.854;2023-01-28T07:57:15;2.40;99.90
2453;DHT22;63678;47.994;7.854;2023-01-28T07:59:54;2.40;99.90
2453;DHT22;63678;47.994;7.854;2023-01-28T08:02:26;2.40;99.90
2453;DHT22;63678;47.994;7.854;2023-01-28T08:05:00;4.00;99.90
2453;DHT22;63678;47.994;7.854;2023-01-28T08:07:32;5.70;99.90
2453;DHT22;63678;47.994;7.854;2023-01-28T08:10:05;5.00;99.90
2453;DHT22;63678;47.994;7.854;2023-01-28T08:12:38;4.90;99.90
2453;DHT22;63678;47.994;7.854;2023-01-28T08:15:11;3.40;99.90
2453;DHT22;63678;47.994;7.854;2023-01-28T08:17:43;3.10;99.90
2453;DHT22;63678;47.994;7.854;2023-01-28T08:20:16;3.00;99.90
2453;DHT22;63678;47.994;7.854;2023-01-28T08:22:48;2.90;99.90
2453;DHT22;63678;47.994;7.854;2023-01-28T08:25:21;2.80;99.90
2453;DHT22;63678;47.994;7.854;2023-01-28T08:27:53;2.80;99.90
2453;DHT22;63678;47.994;7.854;2023-01-28T08:33:00;2.90;99.90
2453;DHT22;63678;47.994;7.854;2023-01-28T08:35:33;2.90;99.90
2453;DHT22;63678;47.994;7.854;2023-01-28T08:38:06;2.80;99.90
2453;DHT22;63678;47.994;7.854;2023-01-28T08:40:39;2.80;99.90
2453;DHT22;63678;47.994;7.854;2023-01-28T08:43:12;2.90;99.90
2453;DHT22;63678;47.994;7.854;2023-01-28T08:45:44;3.00;99.90
2453;DHT22;63678;47.994;7.854;2023-01-28T08:48:18;3.00;99.90
2453;DHT22;63678;47.994;7.854;2023-01-28T08:51:11;3.00;99.90
2453;DHT22;63678;47.994;7.854;2023-01-28T08:53:44;3.00;99.90
2453;DHT22;63678;47.994;7.854;2023-01-28T08:56:16;3.00;99.90
2453;DHT22;63678;47.994;7.854;2023-01-28T08:58:49;3.00;99.90
2453;DHT22;63678;47.994;7.854;2023-01-28T09:01:21;3.00;99.90
2453;DHT22;63678;47.994;7.854;2023-01-28T09:03:53;3.10;99.90
2453;DHT22;63678;47.994;7.854;2023-01-28T09:06:26;3.20;99.90
2453;DHT22;63678;47.994;7.854;2023-01-28T09:08:59;3.30;99.90
2453;DHT22;63678;47.994;7.854;2023-01-28T09:11:32;3.30;99.90
2453;DHT22;63678;47.994;7.854;2023-01-28T09:14:04;3.30;99.90
2453;DHT22;63678;47.994;7.854;2023-01-28T09:16:36;3.30;99.90
2453;DHT22;63678;47.994;7.854;2023-01-28T09:19:09;3.30;99.90
2453;DHT22;63678;47.994;7.854;2023-01-28T09:21:42;3.30;99.90
2453;DHT22;63678;47.994;7.854;2023-01-28T09:24:14;3.30;99.90
2453;DHT22;63678;47.994;7.854;2023-01-28T09:26:50;3.30;99.90
2453;DHT22;63678;47.994;7.854;2023-01-28T09:29:22;3.30;99.90
2453;DHT22;63678;47.994;7.854;2023-01-28T09:37:00;3.50;99.90
2453;DHT22;63678;47.994;7.854;2023-01-28T09:39:32;3.40;99.90
2453;DHT22;63678;47.994;7.854;2023-01-28T09:45:47;3.50;99.90
2453;DHT22;63678;47.994;7.854;2023-01-28T09:48:26;3.50;99.90
2453;DHT22;63678;47.994;7.854;2023-01-28T09:53:43;3.60;99.90
2453;DHT22;63678;47.994;7.854;2023-01-28T09:56:25;2.00;99.90
2453;DHT22;63678;47.994;7.854;2023-01-28T09:59:20;3.70;99.90
2453;DHT22;63678;47.994;7.854;2023-01-28T10:02:03;3.60;99.90
2453;DHT22;63678;47.994;7.854;2023-01-28T10:11:04;3.70;99.90
2453;DHT22;63678;47.994;7.854;2023-01-28T10:14:04;3.70;99.90
2453;DHT22;63678;47.994;7.854;2023-01-28T10:16:50;3.70;99.90
2453;DHT22;63678;47.994;7.854;2023-01-28T10:19:33;3.70;99.90
2453;DHT22;63678;47.994;7.854;2023-01-28T10:22:15;3.70;99.90
2453;DHT22;63678;47.994;7.854;2023-01-28T10:24:54;3.70;99.90
2453;DHT22;63678;47.994;7.854;2023-01-28T10:27:35;3.70;99.90
2453;DHT22;63678;47.994;7.854;2023-01-28T10:33:04;3.60;99.90
2453;DHT22;63678;47.994;7.854;2023-01-28T10:35:38;3.70;99.90
2453;DHT22;63678;47.994;7.854;2023-01-28T10:38:15;3.80;99.90
2453;DHT22;63678;47.994;7.854;2023-01-28T10:40:50;3.90;99.90
2453;DHT22;63678;47.994;7.854;2023-01-28T10:43:24;4.00;99.90
2453;DHT22;63678;47.994;7.854;2023-01-28T10:46:05;4.10;99.90
2453;DHT22;63678;47.994;7.854;2023-01-28T10:49:11;4.10;99.90
2453;DHT22;63678;47.994;7.854;2023-01-28T10:51:46;4.10;99.90
2453;DHT22;63678;47.994;7.854;2023-01-28T10:54:28;4.30;99.90
2453;DHT22;63678;47.994;7.854;2023-01-28T10:57:03;4.50;99.90
2453;DHT22;63678;47.994;7.854;2023-01-28T10:59:37;4.40;99.90
2453;DHT22;63678;47.994;7.854;2023-01-28T11:07:49;5.40;99.90
2453;DHT22;63678;47.994;7.854;2023-01-28T11:13:05;6.70;99.90
2453;DHT22;63678;47.994;7.854;2023-01-28T11:16:04;8.90;99.90
2453;DHT22;63678;47.994;7.854;2023-01-28T11:18:39;8.90;99.90
2453;DHT22;63678;47.994;7.854;2023-01-28T11:21:28;8.90;99.90
2453;DHT22;63678;47.994;7.854;2023-01-28T11:24:06;8.90;99.90
2453;DHT22;63678;47.994;7.854;2023-01-28T11:26:49;8.60;99.90
2453;DHT22;63678;47.994;7.854;2023-01-28T11:29:29;9.10;99.90
2453;DHT22;63678;47.994;7.854;2023-01-28T11:32:02;9.60;99.90
2453;DHT22;63678;47.994;7.854;2023-01-28T11:35:24;10.20;99.10
2453;DHT22;63678;47.994;7.854;2023-01-28T11:38:00;9.90;98.80
2453;DHT22;63678;47.994;7.854;2023-01-28T11:40:32;8.70;99.00
2453;DHT22;63678;47.994;7.854;2023-01-28T11:43:07;7.90;99.90
2453;DHT22;63678;47.994;7.854;2023-01-28T11:51:49;7.10;99.90
2453;DHT22;63678;47.994;7.854;2023-01-28T12:09:46;6.60;99.90
2453;DHT22;63678;47.994;7.854;2023-01-28T12:16:12;6.40;99.90
2453;DHT22;63678;47.994;7.854;2023-01-28T12:19:08;6.20;99.90
2453;DHT22;63678;47.994;7.854;2023-01-28T12:22:15;6.10;99.90
2453;DHT22;63678;47.994;7.854;2023-01-28T12:25:29;5.90;99.90
2453;DHT22;63678;47.994;7.854;2023-01-28T12:31:24;5.80;99.90
2453;DHT22;63678;47.994;7.854;2023-01-28T12:37:28;5.70;99.90
2453;DHT22;63678;47.994;7.854;2023-01-28T12:40:32;5.60;99.90
2453;DHT22;63678;47.994;7.854;2023-01-28T12:51:48;5.30;99.90
2453;DHT22;63678;47.994;7.854;2023-01-28T12:57:29;5.30;99.90
2453;DHT22;63678;47.994;7.854;2023-01-28T13:06:09;5.00;99.90
2453;DHT22;63678;47.994;7.854;2023-01-28T13:08:47;5.00;99.90
2453;DHT22;63678;47.994;7.854;2023-01-28T13:13:53;5.00;99.90
2453;DHT22;63678;47.994;7.854;2023-01-28T13:16:26;5.00;99.90
2453;DHT22;63678;47.994;7.854;2023-01-28T13:19:22;5.00;99.90
2453;DHT22;63678;47.994;7.854;2023-01-28T13:21:56;5.00;99.90
2453;DHT22;63678;47.994;7.854;2023-01-28T13:24:31;6.50;99.90
2453;DHT22;63678;47.994;7.854;2023-01-28T13:27:19;4.90;99.90
2453;DHT22;63678;47.994;7.854;2023-01-28T13:30:18;4.90;99.90
2453;DHT22;63678;47.994;7.854;2023-01-28T13:33:02;4.90;99.90
2453;DHT22;63678;47.994;7.854;2023-01-28T13:35:38;4.90;99.90
2453;DHT22;63678;47.994;7.854;2023-01-28T13:38:18;4.80;99.90
2453;DHT22;63678;47.994;7.854;2023-01-28T13:40:59;4.80;99.90
2453;DHT22;63678;47.994;7.854;2023-01-28T13:43:37;4.80;99.90
2453;DHT22;63678;47.994;7.854;2023-01-28T13:46:14;4.80;99.90
2453;DHT22;63678;47.994;7.854;2023-01-28T13:48:58;4.80;99.90
2453;DHT22;63678;47.994;7.854;2023-01-28T13:51:33;4.80;99.90
2453;DHT22;63678;47.994;7.854;2023-01-28T13:54:12;4.80;99.90
2453;DHT22;63678;47.994;7.854;2023-01-28T14:05:13;4.70;99.90
2453;DHT22;63678;47.994;7.854;2023-01-28T14:20:31;4.50;99.90
2453;DHT22;63678;47.994;7.854;2023-01-28T14:23:19;4.60;99.90
2453;DHT22;63678;47.994;7.854;2023-01-28T14:26:26;4.60;99.90
2453;DHT22;63678;47.994;7.854;2023-01-28T14:32:30;4.50;99.90
2453;DHT22;63678;47.994;7.854;2023-01-28T14:35:08;4.40;99.90
2453;DHT22;63678;47.994;7.854;2023-01-28T14:37:41;4.40;99.90
2453;DHT22;63678;47.994;7.854;2023-01-28T14:40:16;4.40;99.90
2453;DHT22;63678;47.994;7.854;2023-01-28T14:42:52;4.40;99.90
2453;DHT22;63678;47.994;7.854;2023-01-28T14:51:35;4.50;99.90
2453;DHT22;63678;47.994;7.854;2023-01-28T14:57:39;4.60;99.90
2453;DHT22;63678;47.994;7.854;2023-01-28T15:00:27;4.50;99.90
2453;DHT22;63678;47.994;7.854;2023-01-28T15:03:08;4.50;99.90
2453;DHT22;63678;47.994;7.854;2023-01-28T15:06:12;4.50;99.90
2453;DHT22;63678;47.994;7.854;2023-01-28T15:08:47;4.50;99.90
2453;DHT22;63678;47.994;7.854;2023-01-28T15:11:22;4.50;99.90
2453;DHT22;63678;47.994;7.854;2023-01-28T15:13:58;4.40;99.90
2453;DHT22;63678;47.994;7.854;2023-01-28T15:16:53;4.90;99.90
2453;DHT22;63678;47.994;7.854;2023-01-28T15:19:34;4.50;99.90
2453;DHT22;63678;47.994;7.854;2023-01-28T15:22:07;4.50;99.90
2453;DHT22;63678;47.994;7.854;2023-01-28T15:24:41;4.50;99.90
2453;DHT22;63678;47.994;7.854;2023-01-28T15:27:26;4.50;99.90
2453;DHT22;63678;47.994;7.854;2023-01-28T15:30:00;4.40;99.90
2453;DHT22;63678;47.994;7.854;2023-01-28T15:32:33;4.40;99.90
2453;DHT22;63678;47.994;7.854;2023-01-28T15:35:11;4.40;99.90
2453;DHT22;63678;47.994;7.854;2023-01-28T15:37:45;4.40;99.90
2453;DHT22;63678;47.994;7.854;2023-01-28T15:40:22;4.30;99.90
2453;DHT22;63678;47.994;7.854;2023-01-28T15:42:56;4.30;99.90
2453;DHT22;63678;47.994;7.854;2023-01-28T15:45:31;4.30;99.90
2453;DHT22;63678;47.994;7.854;2023-01-28T15:48:05;4.20;99.90
2453;DHT22;63678;47.994;7.854;2023-01-28T15:50:40;4.20;99.90
2453;DHT22;63678;47.994;7.854;2023-01-28T15:53:15;4.20;99.90
2453;DHT22;63678;47.994;7.854;2023-01-28T15:55:48;4.20;99.90
2453;DHT22;63678;47.994;7.854;2023-01-28T15:58:28;4.30;99.90
2453;DHT22;63678;47.994;7.854;2023-01-28T16:03:43;4.20;99.90
2453;DHT22;63678;47.994;7.854;2023-01-28T16:06:21;4.10;99.90
2453;DHT22;63678;47.994;7.854;2023-01-28T16:08:56;4.20;99.90
2453;DHT22;63678;47.994;7.854;2023-01-28T16:11:35;4.10;99.90
2453;DHT22;63678;47.994;7.854;2023-01-28T16:14:33;4.10;99.90
2453;DHT22;63678;47.994;7.854;2023-01-28T16:17:20;4.10;99.90
2453;DHT22;63678;47.994;7.854;2023-01-28T16:20:05;4.10;99.90
2453;DHT22;63678;47.994;7.854;2023-01-28T16:22:40;4.00;99.90
2453;DHT22;63678;47.994;7.854;2023-01-28T16:25:34;4.00;99.90
2453;DHT22;63678;47.994;7.854;2023-01-28T16:28:18;4.10;99.90
2453;DHT22;63678;47.994;7.854;2023-01-28T16:30:51;4.10;99.90
2453;DHT22;63678;47.994;7.854;2023-01-28T16:39:01;4.10;99.90
2453;DHT22;63678;47.994;7.854;2023-01-28T16:41:41;4.10;99.90
2453;DHT22;63678;47.994;7.854;2023-01-28T16:44:16;4.10;99.90
2453;DHT22;63678;47.994;7.854;2023-01-28T16:46:49;4.20;99.90
2453;DHT22;63678;47.994;7.854;2023-01-28T16:49:21;4.10;99.90
2453;DHT22;63678;47.994;7.854;2023-01-28T16:54:28;4.20;99.90
2453;DHT22;63678;47.994;7.854;2023-01-28T17:02:12;4.10;99.90
2453;DHT22;63678;47.994;7.854;2023-01-28T17:04:44;4.20;99.90
2453;DHT22;63678;47.994;7.854;2023-01-28T17:07:17;4.20;99.90
2453;DHT22;63678;47.994;7.854;2023-01-28T17:09:53;4.20;99.90
2453;DHT22;63678;47.994;7.854;2023-01-28T17:12:25;4.10;99.90
2453;DHT22;63678;47.994;7.854;2023-01-28T17:14:58;4.10;99.90
2453;DHT22;63678;47.994;7.854;2023-01-28T17:17:30;4.10;99.90
2453;DHT22;63678;47.994;7.854;2023-01-28T17:22:37;4.00;99.90
2453;DHT22;63678;47.994;7.854;2023-01-28T17:25:10;4.00;99.90
2453;DHT22;63678;47.994;7.854;2023-01-28T17:27:43;4.10;99.90
2453;DHT22;63678;47.994;7.854;2023-01-28T17:30:18;4.10;99.90
2453;DHT22;63678;47.994;7.854;2023-01-28T17:32:51;4.10;99.90
2453;DHT22;63678;47.994;7.854;2023-01-28T17:35:23;4.10;99.90
2453;DHT22;63678;47.994;7.854;2023-01-28T17:37:56;4.20;99.90
2453;DHT22;63678;47.994;7.854;2023-01-28T17:40:28;4.10;99.90
2453;DHT22;63678;47.994;7.854;2023-01-28T17:43:00;4.10;99.90
2453;DHT22;63678;47.994;7.854;2023-01-28T17:45:33;4.00;99.90
2453;DHT22;63678;47.994;7.854;2023-01-28T17:50:39;3.90;99.90
2453;DHT22;63678;47.994;7.854;2023-01-28T17:58:17;3.80;99.90
2453;DHT22;63678;47.994;7.854;2023-01-28T18:00:49;3.80;99.90
2453;DHT22;63678;47.994;7.854;2023-01-28T18:03:22;3.80;99.90
2453;DHT22;63678;47.994;7.854;2023-01-28T18:05:58;3.90;99.90
2453;DHT22;63678;47.994;7.854;2023-01-28T18:08:30;3.80;99.90
2453;DHT22;63678;47.994;7.854;2023-01-28T18:11:06;3.80;99.90
2453;DHT22;63678;47.994;7.854;2023-01-28T18:13:40;3.90;99.90
2453;DHT22;63678;47.994;7.854;2023-01-28T18:16:16;3.90;99.90
2453;DHT22;63678;47.994;7.854;2023-01-28T18:18:49;3.80;99.90
2453;DHT22;63678;47.994;7.854;2023-01-28T18:24:10;3.70;99.90
2453;DHT22;63678;47.994;7.854;2023-01-28T18:26:43;3.70;99.90
2453;DHT22;63678;47.994;7.854;2023-01-28T18:29:15;3.70;99.90
2453;DHT22;63678;47.994;7.854;2023-01-28T18:31:52;3.80;99.90
2453;DHT22;63678;47.994;7.854;2023-01-28T18:34:27;3.80;99.90
2453;DHT22;63678;47.994;7.854;2023-01-28T18:37:02;3.80;99.90
2453;DHT22;63678;47.994;7.854;2023-01-28T18:39:34;3.80;99.90
2453;DHT22;63678;47.994;7.854;2023-01-28T18:42:07;3.80;99.90
2453;DHT22;63678;47.994;7.854;2023-01-28T18:44:39;3.90;99.90
2453;DHT22;63678;47.994;7.854;2023-01-28T18:47:13;5.00;99.90
2453;DHT22;63678;47.994;7.854;2023-01-28T18:49:46;4.50;99.90
2453;DHT22;63678;47.994;7.854;2023-01-28T18:52:19;4.20;99.90
2453;DHT22;63678;47.994;7.854;2023-01-28T18:57:25;4.10;99.90
2453;DHT22;63678;47.994;7.854;2023-01-28T18:59:57;4.10;99.90
2453;DHT22;63678;47.994;7.854;2023-01-28T19:02:29;4.10;99.90
2453;DHT22;63678;47.994;7.854;2023-01-28T19:05:02;4.10;99.90
2453;DHT22;63678;47.994;7.854;2023-01-28T19:07:56;4.00;99.90
2453;DHT22;63678;47.994;7.854;2023-01-28T19:10:28;4.10;99.90
2453;DHT22;63678;47.994;7.854;2023-01-28T19:13:00;4.10;99.90
2453;DHT22;63678;47.994;7.854;2023-01-28T19:15:33;5.90;99.90
2453;DHT22;63678;47.994;7.854;2023-01-28T19:18:05;4.00;99.90
2453;DHT22;63678;47.994;7.854;2023-01-28T19:20:37;4.00;99.90
2453;DHT22;63678;47.994;7.854;2023-01-28T19:23:13;4.00;99.90
2453;DHT22;63678;47.994;7.854;2023-01-28T19:25:45;4.00;99.90
2453;DHT22;63678;47.994;7.854;2023-01-28T19:28:18;4.00;99.90
2453;DHT22;63678;47.994;7.854;2023-01-28T19:30:51;4.00;99.90
2453;DHT22;63678;47.994;7.854;2023-01-28T19:35:58;3.90;99.90
2453;DHT22;63678;47.994;7.854;2023-01-28T19:38:31;4.00;99.90
2453;DHT22;63678;47.994;7.854;2023-01-28T19:41:04;3.90;99.90
2453;DHT22;63678;47.994;7.854;2023-01-28T19:43:38;3.90;99.90
2453;DHT22;63678;47.994;7.854;2023-01-28T19:46:13;3.90;99.90
2453;DHT22;63678;47.994;7.854;2023-01-28T19:48:47;4.00;99.90
2453;DHT22;63678;47.994;7.854;2023-01-28T19:51:19;4.00;99.90
2453;DHT22;63678;47.994;7.854;2023-01-28T19:53:53;4.00;99.90
2453;DHT22;63678;47.994;7.854;2023-01-28T19:56:26;4.00;99.90
2453;DHT22;63678;47.994;7.854;2023-01-28T19:59:03;4.00;99.90
2453;DHT22;63678;47.994;7.854;2023-01-28T20:01:36;4.00;99.90
2453;DHT22;63678;47.994;7.854;2023-01-28T20:04:08;4.10;99.90
2453;DHT22;63678;47.994;7.854;2023-01-28T20:06:41;4.00;99.90
2453;DHT22;63678;47.994;7.854;2023-01-28T20:09:15;4.00;99.90
2453;DHT22;63678;47.994;7.854;2023-01-28T20:11:48;4.00;99.90
2453;DHT22;63678;47.994;7.854;2023-01-28T20:14:42;3.90;99.90
2453;DHT22;63678;47.994;7.854;2023-01-28T20:17:15;3.80;99.90
2453;DHT22;63678;47.994;7.854;2023-01-28T20:22:20;3.80;99.90
2453;DHT22;63678;47.994;7.854;2023-01-28T20:24:52;3.80;99.90
2453;DHT22;63678;47.994;7.854;2023-01-28T20:27:28;3.70;99.90
2453;DHT22;63678;47.994;7.854;2023-01-28T20:30:01;3.80;99.90
2453;DHT22;63678;47.994;7.854;2023-01-28T20:32:33;3.70;99.90
2453;DHT22;63678;47.994;7.854;2023-01-28T20:35:06;3.70;99.90
2453;DHT22;63678;47.994;7.854;2023-01-28T20:37:39;3.70;99.90
2453;DHT22;63678;47.994;7.854;2023-01-28T20:40:12;3.70;99.90